sensor_id;sensor_type;location;lat;lon;timestamp;P1;durP1;ratioP1;P2;durP2;ratioP2
66721;SDS011;53633;49.932;10.884;2023-02-15T00:00:23;42.17;;;12.32;;
66721;SDS011;53633;49.932;10.884;2023-02-15T00:02:49;37.00;;;10.23;;
66721;SDS011;53633;49.932;10.884;2023-02-15T00:05:18;36.20;;;10.30;;
66721;SDS011;53633;49.932;10.884;2023-02-15T00:07:44;35.23;;;9.33;;
66721;SDS011;53633;49.932;10.884;2023-02-15T00:10:11;38.08;;;10.40;;
66721;SDS011;53633;49.932;10.884;2023-02-15T00:12:38;34.55;;;9.30;;
66721;SDS011;53633;49.932;10.884;2023-02-15T00:15:05;37.17;;;9.25;;
66721;SDS011;53633;49.932;10.884;2023-02-15T00:17:32;34.20;;;8.90;;
66721;SDS011;53633;49.932;10.884;2023-02-15T00:19:58;31.67;;;9.80;;
66721;SDS011;53633;49.932;10.884;2023-02-15T00:22:26;34.10;;;9.50;;
66721;SDS011;53633;49.932;10.884;2023-02-15T00:24:53;35.78;;;9.98;;
66721;SDS011;53633;49.932;10.884;2023-02-15T00:27:20;40.30;;;10.98;;
66721;SDS011;53633;49.932;10.884;2023-02-15T00:29:47;38.83;;;10.93;;
66721;SDS011;53633;49.932;10.884;2023-02-15T00:32:13;40.67;;;11.13;;
66721;SDS011;53633;49.932;10.884;2023-02-15T00:34:40;38.05;;;10.77;;
66721;SDS011;53633;49.932;10.884;2023-02-15T00:37:07;34.97;;;10.32;;
66721;SDS011;53633;49.932;10.884;2023-02-15T00:39:35;55.72;;;12.00;;
66721;SDS011;53633;49.932;10.884;2023-02-15T00:42:02;45.85;;;12.07;;
66721;SDS011;53633;49.932;10.884;2023-02-15T00:44:28;41.63;;;10.73;;
66721;SDS011;53633;49.932;10.884;2023-02-15T00:46:55;42.20;;;11.05;;
66721;SDS011;53633;49.932;10.884;2023-02-15T00:49:22;40.55;;;10.85;;
66721;SDS011;53633;49.932;10.884;2023-02-15T00:51:49;43.00;;;11.38;;
66721;SDS011;53633;49.932;10.884;2023-02-15T00:54:15;46.72;;;12.40;;
66721;SDS011;53633;49.932;10.884;2023-02-15T00:56:44;46.83;;;13.37;;
66721;SDS011;53633;49.932;10.884;2023-02-15T00:59:10;44.53;;;12.35;;
66721;SDS011;53633;49.932;10.884;2023-02-15T01:01:37;47.17;;;13.23;;
66721;SDS011;53633;49.932;10.884;2023-02-15T01:04:04;46.35;;;12.10;;
66721;SDS011;53633;49.932;10.884;2023-02-15T01:06:31;47.08;;;12.23;;
66721;SDS011;53633;49.932;10.884;2023-02-15T01:08:58;50.43;;;13.43;;
66721;SDS011;53633;49.932;10.884;2023-02-15T01:11:24;39.65;;;10.52;;
66721;SDS011;53633;49.932;10.884;2023-02-15T01:13:54;49.60;;;13.15;;
66721;SDS011;53633;49.932;10.884;2023-02-15T01:16:22;35.55;;;10.10;;
66721;SDS011;53633;49.932;10.884;2023-02-15T01:18:50;39.38;;;11.35;;
66721;SDS011;53633;49.932;10.884;2023-02-15T01:21:17;45.33;;;12.00;;
66721;SDS011;53633;49.932;10.884;2023-02-15T01:23:45;41.30;;;10.27;;
66721;SDS011;53633;49.932;10.884;2023-02-15T01:26:13;39.67;;;9.45;;
66721;SDS011;53633;49.932;10.884;2023-02-15T01:28:40;33.30;;;8.77;;
66721;SDS011;53633;49.932;10.884;2023-02-15T01:31:09;43.63;;;11.88;;
66721;SDS011;53633;49.932;10.884;2023-02-15T01:33:37;32.33;;;9.03;;
66721;SDS011;53633;49.932;10.884;2023-02-15T01:36:04;45.55;;;10.15;;
66721;SDS011;53633;49.932;10.884;2023-02-15T01:38:32;34.42;;;9.30;;
66721;SDS011;53633;49.932;10.884;2023-02-15T01:40:59;30.08;;;8.52;;
66721;SDS011;53633;49.932;10.884;2023-02-15T01:43:38;30.92;;;9.70;;
66721;SDS011;53633;49.932;10.884;2023-02-15T01:46:06;34.90;;;10.13;;
66721;SDS011;53633;49.932;10.884;2023-02-15T01:48:36;36.78;;;12.68;;
66721;SDS011;53633;49.932;10.884;2023-02-15T01:51:09;35.72;;;11.43;;
66721;SDS011;53633;49.932;10.884;2023-02-15T01:53:37;41.33;;;10.15;;
66721;SDS011;53633;49.932;10.884;2023-02-15T01:56:07;40.65;;;11.52;;
66721;SDS011;53633;49.932;10.884;2023-02-15T01:58:37;36.67;;;10.43;;
66721;SDS011;53633;49.932;10.884;2023-02-15T02:01:04;34.60;;;11.10;;
66721;SDS011;53633;49.932;10.884;2023-02-15T02:03:36;34.53;;;10.38;;
66721;SDS011;53633;49.932;10.884;2023-02-15T02:06:09;31.50;;;8.85;;
66721;SDS011;53633;49.932;10.884;2023-02-15T02:08:36;29.05;;;8.40;;
66721;SDS011;53633;49.932;10.884;2023-02-15T02:11:08;27.67;;;8.47;;
66721;SDS011;53633;49.932;10.884;2023-02-15T02:13:36;27.15;;;8.75;;
66721;SDS011;53633;49.932;10.884;2023-02-15T02:16:04;30.05;;;8.57;;
66721;SDS011;53633;49.932;10.884;2023-02-15T02:18:41;25.88;;;8.60;;
66721;SDS011;53633;49.932;10.884;2023-02-15T02:24:23;27.60;;;8.43;;
66721;SDS011;53633;49.932;10.884;2023-02-15T02:33:10;36.72;;;10.55;;
66721;SDS011;53633;49.932;10.884;2023-02-15T02:36:02;39.42;;;10.27;;
66721;SDS011;53633;49.932;10.884;2023-02-15T02:38:37;30.53;;;9.03;;
66721;SDS011;53633;49.932;10.884;2023-02-15T02:41:16;29.63;;;8.90;;
66721;SDS011;53633;49.932;10.884;2023-02-15T02:43:50;30.52;;;9.60;;
66721;SDS011;53633;49.932;10.884;2023-02-15T02:46:22;41.33;;;11.13;;
66721;SDS011;53633;49.932;10.884;2023-02-15T02:48:55;41.75;;;11.60;;
66721;SDS011;53633;49.932;10.884;2023-02-15T02:51:21;34.03;;;10.43;;
66721;SDS011;53633;49.932;10.884;2023-02-15T02:53:50;34.97;;;11.10;;
66721;SDS011;53633;49.932;10.884;2023-02-15T02:56:21;41.20;;;13.32;;
66721;SDS011;53633;49.932;10.884;2023-02-15T02:58:55;41.03;;;11.68;;
66721;SDS011;53633;49.932;10.884;2023-02-15T03:01:26;32.38;;;10.07;;
66721;SDS011;53633;49.932;10.884;2023-02-15T03:03:58;32.03;;;10.23;;
66721;SDS011;53633;49.932;10.884;2023-02-15T03:06:29;21.83;;;7.38;;
66721;SDS011;53633;49.932;10.884;2023-02-15T03:09:03;20.73;;;7.03;;
66721;SDS011;53633;49.932;10.884;2023-02-15T03:11:34;19.98;;;6.53;;
66721;SDS011;53633;49.932;10.884;2023-02-15T03:14:01;19.75;;;6.90;;
66721;SDS011;53633;49.932;10.884;2023-02-15T03:16:28;22.20;;;6.73;;
66721;SDS011;53633;49.932;10.884;2023-02-15T03:18:55;20.73;;;7.38;;
66721;SDS011;53633;49.932;10.884;2023-02-15T03:21:33;20.90;;;7.05;;
66721;SDS011;53633;49.932;10.884;2023-02-15T03:24:05;18.58;;;5.70;;
66721;SDS011;53633;49.932;10.884;2023-02-15T03:26:35;21.25;;;6.85;;
66721;SDS011;53633;49.932;10.884;2023-02-15T03:29:03;24.30;;;8.30;;
66721;SDS011;53633;49.932;10.884;2023-02-15T03:31:33;27.63;;;9.93;;
66721;SDS011;53633;49.932;10.884;2023-02-15T03:34:07;24.75;;;9.23;;
66721;SDS011;53633;49.932;10.884;2023-02-15T03:36:39;24.60;;;8.65;;
66721;SDS011;53633;49.932;10.884;2023-02-15T03:39:12;24.33;;;9.23;;
66721;SDS011;53633;49.932;10.884;2023-02-15T03:41:45;26.50;;;8.80;;
66721;SDS011;53633;49.932;10.884;2023-02-15T03:44:23;22.45;;;8.35;;
66721;SDS011;53633;49.932;10.884;2023-02-15T03:46:54;25.13;;;8.68;;
66721;SDS011;53633;49.932;10.884;2023-02-15T03:49:28;21.45;;;8.20;;
66721;SDS011;53633;49.932;10.884;2023-02-15T03:52:01;23.23;;;8.13;;
66721;SDS011;53633;49.932;10.884;2023-02-15T03:54:30;25.60;;;8.67;;
66721;SDS011;53633;49.932;10.884;2023-02-15T03:56:59;29.00;;;9.57;;
66721;SDS011;53633;49.932;10.884;2023-02-15T03:59:27;24.13;;;8.70;;
66721;SDS011;53633;49.932;10.884;2023-02-15T04:01:57;25.67;;;8.77;;
66721;SDS011;53633;49.932;10.884;2023-02-15T04:04:35;23.13;;;8.07;;
66721;SDS011;53633;49.932;10.884;2023-02-15T04:07:04;21.10;;;7.93;;
66721;SDS011;53633;49.932;10.884;2023-02-15T04:09:33;24.52;;;8.30;;
66721;SDS011;53633;49.932;10.884;2023-02-15T04:11:59;25.90;;;9.15;;
66721;SDS011;53633;49.932;10.884;2023-02-15T04:14:26;24.33;;;8.57;;
66721;SDS011;53633;49.932;10.884;2023-02-15T04:16:53;25.80;;;8.68;;
66721;SDS011;53633;49.932;10.884;2023-02-15T04:19:19;25.43;;;9.87;;
66721;SDS011;53633;49.932;10.884;2023-02-15T04:21:48;28.23;;;10.40;;
66721;SDS011;53633;49.932;10.884;2023-02-15T04:24:14;31.80;;;11.18;;
66721;SDS011;53633;49.932;10.884;2023-02-15T04:26:41;36.38;;;12.15;;
66721;SDS011;53633;49.932;10.884;2023-02-15T04:29:08;38.55;;;12.25;;
66721;SDS011;53633;49.932;10.884;2023-02-15T04:31:35;35.27;;;12.03;;
66721;SDS011;53633;49.932;10.884;2023-02-15T04:34:02;34.00;;;11.43;;
66721;SDS011;53633;49.932;10.884;2023-02-15T04:36:29;30.40;;;11.43;;
66721;SDS011;53633;49.932;10.884;2023-02-15T04:38:57;34.15;;;11.63;;
66721;SDS011;53633;49.932;10.884;2023-02-15T04:41:23;28.75;;;10.75;;
66721;SDS011;53633;49.932;10.884;2023-02-15T04:43:50;29.30;;;9.70;;
66721;SDS011;53633;49.932;10.884;2023-02-15T04:46:17;28.30;;;9.85;;
66721;SDS011;53633;49.932;10.884;2023-02-15T04:48:44;27.48;;;9.68;;
66721;SDS011;53633;49.932;10.884;2023-02-15T04:51:10;27.42;;;9.52;;
66721;SDS011;53633;49.932;10.884;2023-02-15T04:53:37;27.00;;;9.23;;
66721;SDS011;53633;49.932;10.884;2023-02-15T04:56:05;27.63;;;10.00;;
66721;SDS011;53633;49.932;10.884;2023-02-15T04:58:32;27.08;;;9.45;;
66721;SDS011;53633;49.932;10.884;2023-02-15T05:00:59;27.25;;;10.57;;
66721;SDS011;53633;49.932;10.884;2023-02-15T05:03:26;33.92;;;12.23;;
66721;SDS011;53633;49.932;10.884;2023-02-15T05:05:53;30.60;;;10.48;;
66721;SDS011;53633;49.932;10.884;2023-02-15T05:08:19;35.67;;;10.23;;
66721;SDS011;53633;49.932;10.884;2023-02-15T05:10:47;33.58;;;11.55;;
66721;SDS011;53633;49.932;10.884;2023-02-15T05:13:15;35.60;;;12.32;;
66721;SDS011;53633;49.932;10.884;2023-02-15T05:15:46;38.83;;;11.75;;
66721;SDS011;53633;49.932;10.884;2023-02-15T05:18:13;33.95;;;12.57;;
66721;SDS011;53633;49.932;10.884;2023-02-15T05:20:39;41.77;;;12.47;;
66721;SDS011;53633;49.932;10.884;2023-02-15T05:23:06;43.45;;;12.07;;
66721;SDS011;53633;49.932;10.884;2023-02-15T05:25:33;38.15;;;12.57;;
66721;SDS011;53633;49.932;10.884;2023-02-15T05:28:00;47.40;;;13.32;;
66721;SDS011;53633;49.932;10.884;2023-02-15T05:30:29;40.53;;;12.10;;
66721;SDS011;53633;49.932;10.884;2023-02-15T05:32:56;39.23;;;11.70;;
66721;SDS011;53633;49.932;10.884;2023-02-15T05:35:23;36.88;;;11.68;;
66721;SDS011;53633;49.932;10.884;2023-02-15T05:37:50;39.85;;;12.27;;
66721;SDS011;53633;49.932;10.884;2023-02-15T05:40:16;38.35;;;11.50;;
66721;SDS011;53633;49.932;10.884;2023-02-15T05:42:43;37.63;;;12.30;;
66721;SDS011;53633;49.932;10.884;2023-02-15T05:45:10;43.63;;;12.40;;
66721;SDS011;53633;49.932;10.884;2023-02-15T05:47:38;41.72;;;13.85;;
66721;SDS011;53633;49.932;10.884;2023-02-15T05:50:05;38.63;;;12.40;;
66721;SDS011;53633;49.932;10.884;2023-02-15T05:52:33;42.42;;;12.43;;
66721;SDS011;53633;49.932;10.884;2023-02-15T05:55:00;36.78;;;12.00;;
66721;SDS011;53633;49.932;10.884;2023-02-15T05:57:27;38.67;;;12.50;;
66721;SDS011;53633;49.932;10.884;2023-02-15T05:59:53;41.70;;;12.63;;
66721;SDS011;53633;49.932;10.884;2023-02-15T06:02:20;37.83;;;12.00;;
66721;SDS011;53633;49.932;10.884;2023-02-15T06:04:48;38.03;;;12.43;;
66721;SDS011;53633;49.932;10.884;2023-02-15T06:07:15;35.85;;;11.30;;
66721;SDS011;53633;49.932;10.884;2023-02-15T06:09:42;36.33;;;11.67;;
66721;SDS011;53633;49.932;10.884;2023-02-15T06:12:08;32.70;;;9.88;;
66721;SDS011;53633;49.932;10.884;2023-02-15T06:14:35;32.97;;;12.05;;
66721;SDS011;53633;49.932;10.884;2023-02-15T06:17:02;30.83;;;9.65;;
66721;SDS011;53633;49.932;10.884;2023-02-15T06:19:28;34.15;;;10.38;;
66721;SDS011;53633;49.932;10.884;2023-02-15T06:21:56;34.13;;;10.13;;
66721;SDS011;53633;49.932;10.884;2023-02-15T06:24:23;37.78;;;11.38;;
66721;SDS011;53633;49.932;10.884;2023-02-15T06:26:50;34.97;;;11.60;;
66721;SDS011;53633;49.932;10.884;2023-02-15T06:29:17;32.70;;;10.18;;
66721;SDS011;53633;49.932;10.884;2023-02-15T06:31:44;34.63;;;10.52;;
66721;SDS011;53633;49.932;10.884;2023-02-15T06:34:11;34.97;;;11.67;;
66721;SDS011;53633;49.932;10.884;2023-02-15T06:36:37;35.33;;;11.63;;
66721;SDS011;53633;49.932;10.884;2023-02-15T06:39:05;36.58;;;12.20;;
66721;SDS011;53633;49.932;10.884;2023-02-15T06:41:32;39.83;;;10.90;;
66721;SDS011;53633;49.932;10.884;2023-02-15T06:43:59;34.88;;;10.88;;
66721;SDS011;53633;49.932;10.884;2023-02-15T06:46:26;32.97;;;10.97;;
66721;SDS011;53633;49.932;10.884;2023-02-15T06:48:53;27.38;;;8.68;;
66721;SDS011;53633;49.932;10.884;2023-02-15T06:51:19;30.65;;;9.63;;
66721;SDS011;53633;49.932;10.884;2023-02-15T06:53:46;28.33;;;8.93;;
66721;SDS011;53633;49.932;10.884;2023-02-15T06:56:14;32.47;;;10.82;;
66721;SDS011;53633;49.932;10.884;2023-02-15T06:58:41;28.60;;;9.37;;
66721;SDS011;53633;49.932;10.884;2023-02-15T07:01:08;33.55;;;10.38;;
66721;SDS011;53633;49.932;10.884;2023-02-15T07:03:35;30.95;;;10.65;;
66721;SDS011;53633;49.932;10.884;2023-02-15T07:06:03;29.35;;;9.32;;
66721;SDS011;53633;49.932;10.884;2023-02-15T07:08:31;32.60;;;10.75;;
66721;SDS011;53633;49.932;10.884;2023-02-15T07:10:58;28.80;;;9.63;;
66721;SDS011;53633;49.932;10.884;2023-02-15T07:13:26;32.92;;;10.30;;
66721;SDS011;53633;49.932;10.884;2023-02-15T07:15:52;31.10;;;9.73;;
66721;SDS011;53633;49.932;10.884;2023-02-15T07:18:19;33.40;;;11.23;;
66721;SDS011;53633;49.932;10.884;2023-02-15T07:20:46;35.47;;;11.57;;
66721;SDS011;53633;49.932;10.884;2023-02-15T07:23:13;33.60;;;11.13;;
66721;SDS011;53633;49.932;10.884;2023-02-15T07:25:40;31.52;;;11.10;;
66721;SDS011;53633;49.932;10.884;2023-02-15T07:28:06;36.22;;;11.23;;
66721;SDS011;53633;49.932;10.884;2023-02-15T07:30:35;34.47;;;10.77;;
66721;SDS011;53633;49.932;10.884;2023-02-15T07:33:02;32.75;;;11.60;;
66721;SDS011;53633;49.932;10.884;2023-02-15T07:35:31;37.37;;;12.00;;
66721;SDS011;53633;49.932;10.884;2023-02-15T07:37:58;33.35;;;10.82;;
66721;SDS011;53633;49.932;10.884;2023-02-15T07:40:24;32.72;;;11.88;;
66721;SDS011;53633;49.932;10.884;2023-02-15T07:42:51;36.20;;;11.80;;
66721;SDS011;53633;49.932;10.884;2023-02-15T07:45:19;33.97;;;11.50;;
66721;SDS011;53633;49.932;10.884;2023-02-15T07:47:48;38.27;;;11.20;;
66721;SDS011;53633;49.932;10.884;2023-02-15T07:50:14;37.15;;;14.45;;
66721;SDS011;53633;49.932;10.884;2023-02-15T07:52:41;34.58;;;11.68;;
66721;SDS011;53633;49.932;10.884;2023-02-15T07:55:08;32.50;;;10.07;;
66721;SDS011;53633;49.932;10.884;2023-02-15T07:57:35;35.97;;;13.13;;
66721;SDS011;53633;49.932;10.884;2023-02-15T08:00:02;32.90;;;11.23;;
66721;SDS011;53633;49.932;10.884;2023-02-15T08:02:29;38.05;;;14.20;;
66721;SDS011;53633;49.932;10.884;2023-02-15T08:04:57;35.00;;;12.68;;
66721;SDS011;53633;49.932;10.884;2023-02-15T08:07:24;33.28;;;11.57;;
66721;SDS011;53633;49.932;10.884;2023-02-15T08:09:51;30.23;;;11.13;;
66721;SDS011;53633;49.932;10.884;2023-02-15T08:12:17;28.13;;;9.27;;
66721;SDS011;53633;49.932;10.884;2023-02-15T08:14:44;30.73;;;11.05;;
66721;SDS011;53633;49.932;10.884;2023-02-15T08:17:11;28.55;;;10.25;;
66721;SDS011;53633;49.932;10.884;2023-02-15T08:19:38;34.08;;;10.05;;
66721;SDS011;53633;49.932;10.884;2023-02-15T08:22:07;24.83;;;9.90;;
66721;SDS011;53633;49.932;10.884;2023-02-15T08:24:37;28.47;;;10.43;;
66721;SDS011;53633;49.932;10.884;2023-02-15T08:27:05;31.80;;;10.68;;
66721;SDS011;53633;49.932;10.884;2023-02-15T08:29:33;31.73;;;10.75;;
66721;SDS011;53633;49.932;10.884;2023-02-15T08:32:01;29.38;;;9.98;;
66721;SDS011;53633;49.932;10.884;2023-02-15T08:34:31;24.80;;;9.25;;
66721;SDS011;53633;49.932;10.884;2023-02-15T08:36:59;28.27;;;8.97;;
66721;SDS011;53633;49.932;10.884;2023-02-15T08:39:27;23.13;;;8.57;;
66721;SDS011;53633;49.932;10.884;2023-02-15T08:41:54;24.77;;;9.23;;
66721;SDS011;53633;49.932;10.884;2023-02-15T08:44:21;26.27;;;8.35;;
66721;SDS011;53633;49.932;10.884;2023-02-15T08:46:48;25.08;;;8.60;;
66721;SDS011;53633;49.932;10.884;2023-02-15T08:49:16;23.87;;;8.57;;
66721;SDS011;53633;49.932;10.884;2023-02-15T08:51:44;25.85;;;9.20;;
66721;SDS011;53633;49.932;10.884;2023-02-15T08:54:14;23.52;;;7.80;;
66721;SDS011;53633;49.932;10.884;2023-02-15T08:56:43;24.27;;;8.70;;
66721;SDS011;53633;49.932;10.884;2023-02-15T08:59:12;23.83;;;8.10;;
66721;SDS011;53633;49.932;10.884;2023-02-15T09:01:40;22.10;;;8.43;;
66721;SDS011;53633;49.932;10.884;2023-02-15T09:04:07;24.50;;;8.95;;
66721;SDS011;53633;49.932;10.884;2023-02-15T09:06:34;22.50;;;8.75;;
66721;SDS011;53633;49.932;10.884;2023-02-15T09:09:01;23.77;;;8.52;;
66721;SDS011;53633;49.932;10.884;2023-02-15T09:11:29;22.63;;;8.63;;
66721;SDS011;53633;49.932;10.884;2023-02-15T09:13:59;20.30;;;7.07;;
66721;SDS011;53633;49.932;10.884;2023-02-15T09:16:27;21.30;;;7.50;;
66721;SDS011;53633;49.932;10.884;2023-02-15T09:18:56;20.40;;;7.38;;
66721;SDS011;53633;49.932;10.884;2023-02-15T09:21:23;19.55;;;7.30;;
66721;SDS011;53633;49.932;10.884;2023-02-15T09:23:54;17.60;;;6.93;;
66721;SDS011;53633;49.932;10.884;2023-02-15T09:26:23;20.97;;;7.30;;
66721;SDS011;53633;49.932;10.884;2023-02-15T09:28:51;21.75;;;7.70;;
66721;SDS011;53633;49.932;10.884;2023-02-15T09:31:21;23.55;;;8.80;;
66721;SDS011;53633;49.932;10.884;2023-02-15T09:33:49;23.25;;;8.25;;
66721;SDS011;53633;49.932;10.884;2023-02-15T09:36:17;22.88;;;8.50;;
66721;SDS011;53633;49.932;10.884;2023-02-15T09:38:45;23.73;;;8.00;;
66721;SDS011;53633;49.932;10.884;2023-02-15T09:41:20;22.70;;;8.48;;
66721;SDS011;53633;49.932;10.884;2023-02-15T09:43:57;21.58;;;8.25;;
66721;SDS011;53633;49.932;10.884;2023-02-15T09:46:41;23.90;;;8.73;;
66721;SDS011;53633;49.932;10.884;2023-02-15T09:49:18;22.23;;;8.85;;
66721;SDS011;53633;49.932;10.884;2023-02-15T09:51:55;21.00;;;7.87;;
66721;SDS011;53633;49.932;10.884;2023-02-15T09:54:39;23.48;;;8.38;;
66721;SDS011;53633;49.932;10.884;2023-02-15T09:57:17;22.58;;;8.75;;
66721;SDS011;53633;49.932;10.884;2023-02-15T09:59:56;24.10;;;8.80;;
66721;SDS011;53633;49.932;10.884;2023-02-15T10:02:35;19.40;;;7.10;;
66721;SDS011;53633;49.932;10.884;2023-02-15T10:05:16;21.67;;;7.83;;
66721;SDS011;53633;49.932;10.884;2023-02-15T10:08:05;23.88;;;9.10;;
66721;SDS011;53633;49.932;10.884;2023-02-15T10:10:47;21.52;;;9.07;;
66721;SDS011;53633;49.932;10.884;2023-02-15T10:13:26;26.20;;;8.88;;
66721;SDS011;53633;49.932;10.884;2023-02-15T10:16:02;20.95;;;7.97;;
66721;SDS011;53633;49.932;10.884;2023-02-15T10:21:34;22.50;;;9.20;;
66721;SDS011;53633;49.932;10.884;2023-02-15T10:24:23;25.17;;;10.20;;
66721;SDS011;53633;49.932;10.884;2023-02-15T10:27:10;27.27;;;9.50;;
66721;SDS011;53633;49.932;10.884;2023-02-15T10:29:39;28.10;;;11.38;;
66721;SDS011;53633;49.932;10.884;2023-02-15T10:32:19;24.40;;;10.03;;
66721;SDS011;53633;49.932;10.884;2023-02-15T10:34:51;24.80;;;9.75;;
66721;SDS011;53633;49.932;10.884;2023-02-15T10:40:19;23.83;;;9.23;;
66721;SDS011;53633;49.932;10.884;2023-02-15T10:43:00;28.95;;;11.77;;
66721;SDS011;53633;49.932;10.884;2023-02-15T10:45:40;30.23;;;10.83;;
66721;SDS011;53633;49.932;10.884;2023-02-15T10:51:07;27.35;;;10.45;;
66721;SDS011;53633;49.932;10.884;2023-02-15T10:53:42;26.73;;;11.15;;
66721;SDS011;53633;49.932;10.884;2023-02-15T10:56:24;30.13;;;11.82;;
66721;SDS011;53633;49.932;10.884;2023-02-15T10:59:11;31.87;;;11.67;;
66721;SDS011;53633;49.932;10.884;2023-02-15T11:01:51;27.65;;;11.60;;
66721;SDS011;53633;49.932;10.884;2023-02-15T11:04:30;32.08;;;14.70;;
66721;SDS011;53633;49.932;10.884;2023-02-15T11:07:08;29.38;;;11.40;;
66721;SDS011;53633;49.932;10.884;2023-02-15T11:09:42;32.90;;;12.23;;
66721;SDS011;53633;49.932;10.884;2023-02-15T11:12:13;27.30;;;10.17;;
66721;SDS011;53633;49.932;10.884;2023-02-15T11:14:44;29.27;;;11.65;;
66721;SDS011;53633;49.932;10.884;2023-02-15T11:17:16;32.40;;;13.35;;
66721;SDS011;53633;49.932;10.884;2023-02-15T11:19:48;31.45;;;12.57;;
66721;SDS011;53633;49.932;10.884;2023-02-15T11:22:22;31.65;;;12.55;;
66721;SDS011;53633;49.932;10.884;2023-02-15T11:24:50;33.13;;;12.17;;
66721;SDS011;53633;49.932;10.884;2023-02-15T11:27:19;33.67;;;12.82;;
66721;SDS011;53633;49.932;10.884;2023-02-15T11:29:50;39.63;;;14.60;;
66721;SDS011;53633;49.932;10.884;2023-02-15T11:32:21;34.60;;;14.02;;
66721;SDS011;53633;49.932;10.884;2023-02-15T11:34:51;29.40;;;12.32;;
66721;SDS011;53633;49.932;10.884;2023-02-15T11:37:24;31.40;;;11.93;;
66721;SDS011;53633;49.932;10.884;2023-02-15T11:39:57;34.05;;;12.15;;
66721;SDS011;53633;49.932;10.884;2023-02-15T11:42:24;30.85;;;11.95;;
66721;SDS011;53633;49.932;10.884;2023-02-15T11:44:55;32.97;;;12.15;;
66721;SDS011;53633;49.932;10.884;2023-02-15T11:47:25;32.05;;;12.13;;
66721;SDS011;53633;49.932;10.884;2023-02-15T11:49:52;31.70;;;13.97;;
66721;SDS011;53633;49.932;10.884;2023-02-15T11:52:19;31.60;;;12.13;;
66721;SDS011;53633;49.932;10.884;2023-02-15T11:54:47;34.58;;;13.93;;
66721;SDS011;53633;49.932;10.884;2023-02-15T11:57:17;31.42;;;13.00;;
66721;SDS011;53633;49.932;10.884;2023-02-15T11:59:49;32.10;;;12.95;;
66721;SDS011;53633;49.932;10.884;2023-02-15T12:02:20;27.33;;;11.60;;
66721;SDS011;53633;49.932;10.884;2023-02-15T12:04:48;33.40;;;13.27;;
66721;SDS011;53633;49.932;10.884;2023-02-15T12:07:21;31.77;;;12.38;;
66721;SDS011;53633;49.932;10.884;2023-02-15T12:09:52;32.78;;;13.02;;
66721;SDS011;53633;49.932;10.884;2023-02-15T12:12:26;36.03;;;14.48;;
66721;SDS011;53633;49.932;10.884;2023-02-15T12:14:56;31.73;;;12.87;;
66721;SDS011;53633;49.932;10.884;2023-02-15T12:17:24;32.60;;;11.85;;
66721;SDS011;53633;49.932;10.884;2023-02-15T12:19:53;34.35;;;13.45;;
66721;SDS011;53633;49.932;10.884;2023-02-15T12:22:23;30.00;;;12.75;;
66721;SDS011;53633;49.932;10.884;2023-02-15T12:24:54;35.20;;;14.32;;
66721;SDS011;53633;49.932;10.884;2023-02-15T12:27:23;32.73;;;12.73;;
66721;SDS011;53633;49.932;10.884;2023-02-15T12:29:53;31.00;;;13.75;;
66721;SDS011;53633;49.932;10.884;2023-02-15T12:32:25;32.45;;;14.50;;
66721;SDS011;53633;49.932;10.884;2023-02-15T12:34:55;34.85;;;14.57;;
66721;SDS011;53633;49.932;10.884;2023-02-15T12:37:27;33.92;;;14.07;;
66721;SDS011;53633;49.932;10.884;2023-02-15T12:39:59;30.97;;;13.13;;
66721;SDS011;53633;49.932;10.884;2023-02-15T12:42:27;29.77;;;12.65;;
66721;SDS011;53633;49.932;10.884;2023-02-15T12:45:19;32.35;;;13.57;;
66721;SDS011;53633;49.932;10.884;2023-02-15T12:47:59;31.70;;;13.02;;
66721;SDS011;53633;49.932;10.884;2023-02-15T12:50:35;33.15;;;12.80;;
66721;SDS011;53633;49.932;10.884;2023-02-15T12:53:06;31.43;;;12.30;;
66721;SDS011;53633;49.932;10.884;2023-02-15T12:55:41;29.77;;;11.75;;
66721;SDS011;53633;49.932;10.884;2023-02-15T12:58:16;31.02;;;12.43;;
66721;SDS011;53633;49.932;10.884;2023-02-15T13:00:44;28.73;;;12.23;;
66721;SDS011;53633;49.932;10.884;2023-02-15T13:03:15;32.60;;;10.60;;
66721;SDS011;53633;49.932;10.884;2023-02-15T13:05:44;32.37;;;11.43;;
66721;SDS011;53633;49.932;10.884;2023-02-15T13:08:14;28.40;;;10.68;;
66721;SDS011;53633;49.932;10.884;2023-02-15T13:10:53;32.13;;;12.13;;
66721;SDS011;53633;49.932;10.884;2023-02-15T13:13:22;33.83;;;12.95;;
66721;SDS011;53633;49.932;10.884;2023-02-15T13:15:52;31.17;;;11.55;;
66721;SDS011;53633;49.932;10.884;2023-02-15T13:18:25;33.87;;;12.43;;
66721;SDS011;53633;49.932;10.884;2023-02-15T13:20:56;26.98;;;10.80;;
66721;SDS011;53633;49.932;10.884;2023-02-15T13:23:26;29.08;;;10.85;;
66721;SDS011;53633;49.932;10.884;2023-02-15T13:25:56;27.08;;;11.27;;
66721;SDS011;53633;49.932;10.884;2023-02-15T13:28:27;28.67;;;10.73;;
66721;SDS011;53633;49.932;10.884;2023-02-15T13:31:00;27.93;;;11.20;;
66721;SDS011;53633;49.932;10.884;2023-02-15T13:33:29;26.83;;;10.40;;
66721;SDS011;53633;49.932;10.884;2023-02-15T13:36:01;27.63;;;11.15;;
66721;SDS011;53633;49.932;10.884;2023-02-15T13:38:40;30.13;;;11.68;;
66721;SDS011;53633;49.932;10.884;2023-02-15T13:41:16;27.05;;;9.85;;
66721;SDS011;53633;49.932;10.884;2023-02-15T13:43:52;23.03;;;9.70;;
66721;SDS011;53633;49.932;10.884;2023-02-15T13:46:34;25.83;;;9.98;;
66721;SDS011;53633;49.932;10.884;2023-02-15T13:49:14;25.60;;;10.05;;
66721;SDS011;53633;49.932;10.884;2023-02-15T13:51:50;25.98;;;10.48;;
66721;SDS011;53633;49.932;10.884;2023-02-15T13:54:33;25.02;;;9.13;;
66721;SDS011;53633;49.932;10.884;2023-02-15T13:57:23;26.27;;;10.07;;
66721;SDS011;53633;49.932;10.884;2023-02-15T14:00:11;25.90;;;10.73;;
66721;SDS011;53633;49.932;10.884;2023-02-15T14:02:58;27.70;;;10.88;;
66721;SDS011;53633;49.932;10.884;2023-02-15T14:06:02;29.60;;;10.85;;
66721;SDS011;53633;49.932;10.884;2023-02-15T14:08:45;25.38;;;10.50;;
66721;SDS011;53633;49.932;10.884;2023-02-15T14:11:24;26.77;;;10.37;;
66721;SDS011;53633;49.932;10.884;2023-02-15T14:14:17;30.65;;;10.63;;
66721;SDS011;53633;49.932;10.884;2023-02-15T14:17:08;29.52;;;10.23;;
66721;SDS011;53633;49.932;10.884;2023-02-15T14:19:42;28.50;;;10.05;;
66721;SDS011;53633;49.932;10.884;2023-02-15T14:22:14;27.55;;;10.05;;
66721;SDS011;53633;49.932;10.884;2023-02-15T14:24:51;24.67;;;10.00;;
66721;SDS011;53633;49.932;10.884;2023-02-15T14:27:34;27.50;;;11.18;;
66721;SDS011;53633;49.932;10.884;2023-02-15T14:30:14;30.85;;;11.57;;
66721;SDS011;53633;49.932;10.884;2023-02-15T14:32:45;28.48;;;11.07;;
66721;SDS011;53633;49.932;10.884;2023-02-15T14:35:15;30.33;;;11.32;;
66721;SDS011;53633;49.932;10.884;2023-02-15T14:37:45;33.47;;;12.13;;
66721;SDS011;53633;49.932;10.884;2023-02-15T14:40:17;27.63;;;11.27;;
66721;SDS011;53633;49.932;10.884;2023-02-15T14:42:53;24.50;;;10.13;;
66721;SDS011;53633;49.932;10.884;2023-02-15T14:45:26;30.65;;;12.05;;
66721;SDS011;53633;49.932;10.884;2023-02-15T14:48:02;30.58;;;11.38;;
66721;SDS011;53633;49.932;10.884;2023-02-15T14:50:39;31.50;;;12.13;;